In Rescue
 
Open Full Screen Window  High Contrast Mode
Wind Gusting 00 knots
03
January 24, 2020 10:01 PM EST
Present Weather: Light Rain
Weather Information
Wind Direction
  040 °
Wind Speed
  03 kt (3 mph)
Wind Gust
  00 kt (0 mph)
Altimeter
29.80 in
Visibility
2 SM
Temperature
01° C
34° F
Dewpoint
01° C
34° F
Humidity
100%
Sky Condition
Overcast @ 300 ft
LIFR

METAR KAMN 250301Z AUTO 04003KT 2SM -RA OVC003 01/01 A2980 RMK AO2 T00120008

FAA Disclaimer: The data displayed is for advisory purposes only and is not to be used for flight planning or operations.